createdAt,value
2022-09-03T00:00:10.251Z,12.16
2022-09-03T00:03:19.853Z,12.17
2022-09-03T00:06:16.333Z,12.19
2022-09-03T00:09:16.137Z,12.19
2022-09-03T00:12:24.296Z,12.21
2022-09-03T00:15:16.677Z,12.20
2022-09-03T00:18:16.658Z,12.20
2022-09-03T00:21:08.030Z,12.20
2022-09-03T00:23:54.147Z,12.25
2022-09-03T00:26:44.718Z,12.25
2022-09-03T00:29:38.081Z,12.28
2022-09-03T00:33:10.262Z,12.28
2022-09-03T00:36:01.527Z,12.30
2022-09-03T00:38:47.207Z,12.29
2022-09-03T00:41:59.262Z,12.33
2022-09-03T00:45:10.561Z,12.34
2022-09-03T00:47:58.771Z,12.31
2022-09-03T00:50:47.039Z,12.29
2022-09-03T00:53:51.802Z,12.28
2022-09-03T00:56:53.034Z,12.25
2022-09-03T01:00:00.006Z,12.24
2022-09-03T01:02:48.101Z,12.25
2022-09-03T01:06:01.001Z,12.23
2022-09-03T01:09:20.682Z,12.24
2022-09-03T01:12:53.412Z,12.24
2022-09-03T01:16:17.069Z,12.24
2022-09-03T01:19:28.340Z,12.20
2022-09-03T01:22:19.609Z,12.17
2022-09-03T01:25:23.209Z,12.15
2022-09-03T01:28:42.891Z,12.13
2022-09-03T01:31:34.855Z,12.10
2022-09-03T01:34:33.151Z,12.06
2022-09-03T01:37:33.351Z,12.01
2022-09-03T01:40:42.820Z,11.99
2022-09-03T01:43:45.417Z,11.94
2022-09-03T01:46:39.744Z,11.91
2022-09-03T01:49:37.542Z,11.87
2022-09-03T01:52:42.953Z,11.86
2022-09-03T01:56:07.146Z,11.82
2022-09-03T01:59:08.820Z,11.81
2022-09-03T02:02:05.896Z,11.78
2022-09-03T02:05:08.834Z,11.78
2022-09-03T02:07:56.837Z,11.77
2022-09-03T02:10:51.299Z,11.75
2022-09-03T02:13:44.418Z,11.75
2022-09-03T02:16:33.089Z,11.74
2022-09-03T02:19:18.473Z,11.73
2022-09-03T02:22:04.838Z,11.75
2022-09-03T02:24:49.871Z,11.75
2022-09-03T02:27:34.839Z,11.75
2022-09-03T02:30:19.732Z,11.77
2022-09-03T02:33:04.865Z,11.75
2022-09-03T02:35:51.126Z,11.75
2022-09-03T02:38:36.997Z,11.76
2022-09-03T02:41:22.314Z,11.74
2022-09-03T02:44:16.963Z,11.73
2022-09-03T02:47:06.727Z,11.74
2022-09-03T02:49:51.555Z,11.74
2022-09-03T02:52:36.779Z,11.73
2022-09-03T02:55:21.630Z,11.73
2022-09-03T02:58:08.395Z,11.71
2022-09-03T03:00:54.498Z,11.73
2022-09-03T03:03:40.086Z,11.73
2022-09-03T03:06:25.359Z,11.71
2022-09-03T03:09:11.019Z,11.73
2022-09-03T03:11:56.647Z,11.71
2022-09-03T03:14:41.967Z,11.70
2022-09-03T03:17:28.260Z,11.71
2022-09-03T03:20:13.250Z,11.69
2022-09-03T03:22:58.209Z,11.69
2022-09-03T03:25:43.737Z,11.68
2022-09-03T03:28:33.188Z,11.67
2022-09-03T03:31:21.713Z,11.68
2022-09-03T03:34:06.702Z,11.65
2022-09-03T03:36:51.848Z,11.67
2022-09-03T03:39:37.146Z,11.68
2022-09-03T03:42:22.164Z,11.69
2022-09-03T03:45:09.619Z,11.74
2022-09-03T03:47:58.749Z,11.76
2022-09-03T03:50:43.761Z,11.79
2022-09-03T03:53:28.694Z,11.82
2022-09-03T03:56:15.950Z,11.85
2022-09-03T03:59:01.642Z,11.89
2022-09-03T04:01:48.582Z,11.90
2022-09-03T04:04:33.260Z,11.91
2022-09-03T04:07:18.131Z,11.95
2022-09-03T04:10:04.073Z,11.98
2022-09-03T04:12:48.836Z,12.03
2022-09-03T04:15:34.461Z,12.06
2022-09-03T04:18:19.565Z,12.10
2022-09-03T04:21:08.688Z,12.18
2022-09-03T04:23:54.674Z,12.26
2022-09-03T04:26:40.209Z,12.33
2022-09-03T04:29:25.128Z,12.40
2022-09-03T04:32:28.880Z,12.46
2022-09-03T04:35:13.702Z,12.57
2022-09-03T04:37:58.957Z,12.62
2022-09-03T04:40:52.311Z,12.75
2022-09-03T04:43:37.612Z,12.86
2022-09-03T04:46:25.598Z,12.94
2022-09-03T04:49:10.758Z,12.99
2022-09-03T04:51:55.860Z,13.03
2022-09-03T04:54:40.898Z,13.06
2022-09-03T04:57:27.335Z,13.10
2022-09-03T05:00:13.083Z,13.21
2022-09-03T05:03:01.637Z,13.32
2022-09-03T05:05:55.021Z,13.47
2022-09-03T05:08:40.234Z,13.70
2022-09-03T05:11:27.059Z,13.92
2022-09-03T05:14:12.277Z,14.12
2022-09-03T05:16:57.630Z,14.32
2022-09-03T05:19:42.940Z,14.49
2022-09-03T05:22:27.908Z,14.67
2022-09-03T05:25:12.839Z,14.87
2022-09-03T05:27:58.716Z,15.07
2022-09-03T05:30:43.975Z,15.24
2022-09-03T05:33:29.339Z,15.35
2022-09-03T05:36:17.514Z,15.43
2022-09-03T05:39:04.809Z,15.46
2022-09-03T05:41:52.679Z,15.46
2022-09-03T05:44:38.487Z,15.44
2022-09-03T05:47:23.639Z,15.44
2022-09-03T05:50:10.219Z,15.46
2022-09-03T05:52:55.261Z,15.47
2022-09-03T05:55:40.511Z,15.49
2022-09-03T05:58:31.020Z,15.54
2022-09-03T06:01:18.021Z,15.63
2022-09-03T06:04:06.057Z,15.76
2022-09-03T06:06:51.079Z,15.85
2022-09-03T06:09:36.189Z,15.97
2022-09-03T06:12:21.220Z,16.07
2022-09-03T06:15:06.733Z,16.15
2022-09-03T06:17:51.800Z,16.16
2022-09-03T06:20:37.425Z,16.12
2022-09-03T06:23:23.605Z,16.26
2022-09-03T06:26:14.059Z,16.33
2022-09-03T06:28:59.779Z,16.40
2022-09-03T06:31:45.066Z,16.45
2022-09-03T06:34:30.408Z,16.53
2022-09-03T06:37:15.088Z,16.60
2022-09-03T06:40:00.109Z,16.64
2022-09-03T06:42:46.624Z,16.63
2022-09-03T06:45:32.248Z,16.71
2022-09-03T06:48:17.370Z,16.74
2022-09-03T06:51:11.462Z,16.85
2022-09-03T06:54:08.579Z,16.99
2022-09-03T06:56:53.199Z,17.20
2022-09-03T06:59:38.462Z,17.40
2022-09-03T07:02:23.770Z,17.55
2022-09-03T07:05:08.857Z,17.66
2022-09-03T07:07:53.751Z,17.76
2022-09-03T07:10:38.913Z,17.92
2022-09-03T07:13:24.034Z,18.07
2022-09-03T07:16:15.936Z,18.35
2022-09-03T07:19:02.997Z,18.69
2022-09-03T07:21:50.550Z,19.03
2022-09-03T07:24:37.574Z,19.34
2022-09-03T07:27:23.728Z,19.58
2022-09-03T07:30:10.215Z,19.72
2022-09-03T07:32:55.273Z,19.63
2022-09-03T07:35:41.439Z,19.46
2022-09-03T07:38:26.543Z,19.14
2022-09-03T07:41:17.609Z,19.03
2022-09-03T07:44:18.792Z,18.71
2022-09-03T07:47:03.975Z,18.72
2022-09-03T07:49:49.236Z,18.72
2022-09-03T07:52:34.365Z,18.81
2022-09-03T07:55:19.842Z,18.78
2022-09-03T07:58:04.768Z,18.91
2022-09-03T08:00:49.894Z,18.80
2022-09-03T08:03:35.874Z,18.47
2022-09-03T08:06:24.322Z,18.58
2022-09-03T08:09:13.164Z,18.62
2022-09-03T08:11:58.496Z,18.75
2022-09-03T08:14:44.222Z,18.87
2022-09-03T08:17:29.372Z,18.87
2022-09-03T08:20:15.485Z,18.92
2022-09-03T08:23:02.312Z,19.02
2022-09-03T08:25:47.566Z,19.06
2022-09-03T08:28:33.939Z,19.12
2022-09-03T08:31:21.677Z,19.15
2022-09-03T08:34:07.364Z,19.12
2022-09-03T08:36:52.939Z,19.09
2022-09-03T08:39:38.622Z,19.23
2022-09-03T08:43:02.698Z,19.14
2022-09-03T08:45:51.241Z,19.11
2022-09-03T08:48:36.595Z,19.13
2022-09-03T08:51:27.335Z,19.11
2022-09-03T08:54:13.641Z,19.21
2022-09-03T08:57:02.311Z,19.33
2022-09-03T08:59:53.224Z,19.35
2022-09-03T09:03:17.034Z,19.53
2022-09-03T09:06:08.168Z,19.66
2022-09-03T09:08:55.938Z,19.78
2022-09-03T09:12:14.301Z,19.94
2022-09-03T09:15:30.069Z,20.07
2022-09-03T09:18:29.863Z,20.22
2022-09-03T09:21:34.089Z,20.46
2022-09-03T09:24:23.905Z,20.68
2022-09-03T09:27:12.844Z,20.71
2022-09-03T09:30:04.959Z,20.84
2022-09-03T09:32:51.121Z,21.03
2022-09-03T09:35:36.195Z,21.35
2022-09-03T09:38:32.348Z,21.75
2022-09-03T09:41:19.658Z,21.98
2022-09-03T09:44:05.190Z,22.34
2022-09-03T09:46:54.703Z,22.43
2022-09-03T09:49:51.411Z,22.57
2022-09-03T09:52:36.318Z,22.98
2022-09-03T09:55:23.405Z,23.32
2022-09-03T09:58:14.315Z,23.81
2022-09-03T10:01:13.872Z,24.07
2022-09-03T10:04:07.520Z,24.75
2022-09-03T10:07:22.456Z,25.30
2022-09-03T10:10:17.432Z,25.75
2022-09-03T10:13:26.179Z,26.20
2022-09-03T10:16:36.033Z,26.82
2022-09-03T10:19:40.296Z,26.71
2022-09-03T10:22:25.747Z,26.94
2022-09-03T10:25:18.873Z,26.99
2022-09-03T10:28:07.627Z,26.75
2022-09-03T10:31:20.210Z,26.50
2022-09-03T10:34:34.406Z,26.29
2022-09-03T10:37:25.342Z,25.79
2022-09-03T10:40:31.540Z,26.03
2022-09-03T10:43:38.174Z,26.46
2022-09-03T10:46:29.496Z,26.37
2022-09-03T10:49:28.746Z,26.76
2022-09-03T10:52:16.746Z,27.41
2022-09-03T10:55:39.680Z,27.70
2022-09-03T10:59:01.946Z,27.84
2022-09-03T11:02:04.906Z,28.49
2022-09-03T11:04:54.441Z,30.06
2022-09-03T11:08:03.168Z,30.34
2022-09-03T11:10:54.708Z,29.63
2022-09-03T11:14:11.763Z,29.04
2022-09-03T11:17:03.386Z,28.38
2022-09-03T11:19:56.105Z,27.75
2022-09-03T11:22:43.191Z,27.20
2022-09-03T11:25:33.744Z,26.32
2022-09-03T11:28:56.201Z,25.49
2022-09-03T11:32:07.320Z,24.68
2022-09-03T11:34:54.220Z,23.44
2022-09-03T11:37:59.797Z,22.38
2022-09-03T11:41:23.699Z,21.42
2022-09-03T11:44:18.548Z,20.75
2022-09-03T11:47:21.406Z,20.24
2022-09-03T11:50:08.439Z,19.85
2022-09-03T11:53:06.293Z,19.55
2022-09-03T11:56:06.775Z,19.11
2022-09-03T11:59:15.127Z,18.88
2022-09-03T12:02:27.312Z,18.69
2022-09-03T12:05:42.236Z,18.48
2022-09-03T12:08:43.051Z,18.30
2022-09-03T12:11:53.219Z,18.10
2022-09-03T12:15:06.444Z,17.91
2022-09-03T12:18:18.610Z,17.84
2022-09-03T12:21:06.369Z,17.86
2022-09-03T12:23:57.957Z,17.80
2022-09-03T12:26:43.721Z,17.73
2022-09-03T12:29:31.187Z,17.71
2022-09-03T12:32:18.040Z,17.70
2022-09-03T12:38:27.330Z,17.66
2022-09-03T12:41:30.772Z,17.60
2022-09-03T12:44:29.417Z,17.58
2022-09-03T12:50:23.977Z,17.56
2022-09-03T12:53:12.581Z,17.59
2022-09-03T12:56:00.976Z,17.49
2022-09-03T12:58:59.168Z,17.43
2022-09-03T13:01:55.374Z,17.34
2022-09-03T13:04:42.169Z,17.29
2022-09-03T13:07:33.868Z,17.24
2022-09-03T13:10:29.915Z,17.16
2022-09-03T13:13:29.043Z,17.06
2022-09-03T13:16:23.011Z,16.98
2022-09-03T13:19:20.238Z,16.90
2022-09-03T13:22:23.705Z,16.83
2022-09-03T13:25:11.448Z,16.77
2022-09-03T13:28:27.103Z,16.67
2022-09-03T13:31:30.867Z,16.61
2022-09-03T13:34:18.468Z,16.51
2022-09-03T13:37:06.536Z,16.48
2022-09-03T13:39:59.854Z,16.41
2022-09-03T13:42:55.401Z,16.32
2022-09-03T13:45:48.202Z,16.32
2022-09-03T13:48:58.144Z,16.29
2022-09-03T13:51:51.277Z,16.25
2022-09-03T13:54:49.830Z,16.22
2022-09-03T13:58:19.011Z,16.14
2022-09-03T14:01:13.073Z,16.09
2022-09-03T14:04:02.101Z,16.09
2022-09-03T14:06:56.083Z,16.09
2022-09-03T14:10:18.758Z,16.10
2022-09-03T14:13:39.075Z,16.05
2022-09-03T14:16:29.545Z,16.06
2022-09-03T14:19:33.126Z,16.05
2022-09-03T14:22:23.996Z,16.03
2022-09-03T14:25:14.933Z,16.00
2022-09-03T14:28:31.656Z,15.98
2022-09-03T14:31:16.852Z,15.90
2022-09-03T14:34:36.156Z,15.78
2022-09-03T14:37:58.300Z,15.64
2022-09-03T14:40:56.643Z,15.50
2022-09-03T14:44:00.640Z,15.43
2022-09-03T14:47:00.549Z,15.32
2022-09-03T14:49:54.411Z,15.25
2022-09-03T14:53:02.688Z,15.20
2022-09-03T14:56:05.902Z,15.16
2022-09-03T14:59:08.627Z,15.14
2022-09-03T15:02:25.233Z,15.16
2022-09-03T15:05:25.705Z,15.18
2022-09-03T15:08:32.244Z,15.16
2022-09-03T15:11:22.573Z,15.13
2022-09-03T15:14:18.181Z,15.09
2022-09-03T15:17:22.276Z,15.04
2022-09-03T15:20:10.568Z,14.96
2022-09-03T15:23:29.929Z,14.86
2022-09-03T15:26:33.548Z,14.75
2022-09-03T15:29:27.556Z,14.73
2022-09-03T15:32:31.335Z,14.66
2022-09-03T15:35:28.911Z,14.61
2022-09-03T15:38:41.910Z,14.54
2022-09-03T15:41:57.528Z,14.50
2022-09-03T15:44:46.870Z,14.46
2022-09-03T15:47:55.562Z,14.46
2022-09-03T15:50:58.165Z,14.46
2022-09-03T15:53:57.164Z,14.43
2022-09-03T15:57:03.058Z,14.38
2022-09-03T16:00:00.362Z,14.35
2022-09-03T16:02:58.786Z,14.34
2022-09-03T16:05:50.361Z,14.29
2022-09-03T16:08:58.965Z,14.26
2022-09-03T16:12:00.063Z,14.21
2022-09-03T16:14:55.932Z,14.18
2022-09-03T16:18:04.107Z,14.18
2022-09-03T16:20:59.388Z,14.18
2022-09-03T16:23:55.985Z,14.16
2022-09-03T16:27:04.204Z,14.12
2022-09-03T16:30:00.337Z,14.06
2022-09-03T16:33:04.023Z,14.05
2022-09-03T16:36:01.363Z,14.02
2022-09-03T16:39:19.291Z,13.99
2022-09-03T16:42:21.919Z,13.97
2022-09-03T16:45:27.129Z,13.95
2022-09-03T16:48:26.287Z,13.92
2022-09-03T16:51:49.136Z,13.89
2022-09-03T16:55:08.127Z,13.85
2022-09-03T16:58:07.840Z,13.81
2022-09-03T17:01:20.242Z,13.78
2022-09-03T17:04:24.069Z,13.75
2022-09-03T17:07:09.575Z,13.71
2022-09-03T17:09:57.613Z,13.71
2022-09-03T17:13:02.140Z,13.71
2022-09-03T17:16:20.312Z,13.70
2022-09-03T17:19:18.585Z,13.71
2022-09-03T17:22:33.606Z,13.69
2022-09-03T17:25:39.333Z,13.66
2022-09-03T17:28:30.857Z,13.66
2022-09-03T17:31:48.580Z,13.66
2022-09-03T17:34:59.348Z,13.63
2022-09-03T17:38:20.136Z,13.61
2022-09-03T17:41:13.222Z,13.62
2022-09-03T17:44:20.175Z,13.62
2022-09-03T17:47:42.739Z,13.67
2022-09-03T17:50:33.633Z,13.69
2022-09-03T17:53:26.287Z,13.70
2022-09-03T17:56:22.446Z,13.71
2022-09-03T17:59:31.652Z,13.68
2022-09-03T18:02:35.290Z,13.68
2022-09-03T18:05:25.456Z,13.67
2022-09-03T18:08:20.223Z,13.66
2022-09-03T18:11:11.757Z,13.63
2022-09-03T18:14:15.927Z,13.61
2022-09-03T18:17:15.387Z,13.57
2022-09-03T18:20:29.423Z,13.55
2022-09-03T18:23:44.482Z,13.55
2022-09-03T18:26:55.251Z,13.55
2022-09-03T18:30:20.838Z,13.51
2022-09-03T18:33:24.534Z,13.47
2022-09-03T18:36:29.820Z,13.46
2022-09-03T18:39:46.255Z,13.43
2022-09-03T18:43:28.108Z,13.41
2022-09-03T18:48:01.223Z,13.40
2022-09-03T18:50:41.256Z,13.38
2022-09-03T18:54:20.035Z,13.37
2022-09-03T18:57:37.043Z,13.38
2022-09-03T19:00:40.808Z,13.36
2022-09-03T19:04:10.726Z,13.34
2022-09-03T19:07:27.616Z,13.30
2022-09-03T19:10:40.212Z,13.28
2022-09-03T19:13:55.296Z,13.24
2022-09-03T19:17:38.258Z,13.22
2022-09-03T19:20:49.630Z,13.19
2022-09-03T19:23:55.773Z,13.16
2022-09-03T19:27:50.562Z,13.11
2022-09-03T19:31:02.946Z,13.09
2022-09-03T19:34:28.332Z,13.07
2022-09-03T19:37:35.172Z,13.07
2022-09-03T19:41:09.703Z,13.07
2022-09-03T19:44:47.769Z,13.07
2022-09-03T19:48:05.283Z,13.05
2022-09-03T19:51:36.313Z,13.04
2022-09-03T19:54:45.090Z,13.00
2022-09-03T19:57:49.890Z,12.98
2022-09-03T20:00:53.842Z,12.98
2022-09-03T20:03:58.009Z,12.98
2022-09-03T20:07:03.781Z,12.98
2022-09-03T20:10:09.732Z,12.95
2022-09-03T20:13:16.996Z,12.97
2022-09-03T20:16:35.171Z,12.93
2022-09-03T20:19:48.150Z,12.94
2022-09-03T20:22:57.518Z,12.90
2022-09-03T20:26:10.687Z,12.88
2022-09-03T20:29:17.417Z,12.87
2022-09-03T20:32:08.704Z,12.86
2022-09-03T20:35:18.351Z,12.83
2022-09-03T20:38:12.286Z,12.82
2022-09-03T20:41:09.467Z,12.79
2022-09-03T20:44:16.211Z,12.77
2022-09-03T20:47:20.860Z,12.75
2022-09-03T20:50:22.532Z,12.73
2022-09-03T20:53:32.117Z,12.69
2022-09-03T20:56:24.454Z,12.67
2022-09-03T20:59:30.680Z,12.67
2022-09-03T21:02:26.866Z,12.67
2022-09-03T21:05:28.994Z,12.63
2022-09-03T21:08:41.599Z,12.66
2022-09-03T21:11:53.155Z,12.65
2022-09-03T21:14:54.872Z,12.61
2022-09-03T21:18:02.630Z,12.59
2022-09-03T21:21:00.900Z,12.57
2022-09-03T21:24:02.345Z,12.57
2022-09-03T21:26:57.866Z,12.57
2022-09-03T21:29:51.168Z,12.57
2022-09-03T21:33:02.242Z,12.55
2022-09-03T21:36:15.806Z,12.54
2022-09-03T21:39:14.918Z,12.53
2022-09-03T21:42:10.621Z,12.50
2022-09-03T21:45:07.423Z,12.51
2022-09-03T21:48:06.017Z,12.49
2022-09-03T21:50:55.251Z,12.48
2022-09-03T21:53:52.461Z,12.46
2022-09-03T21:56:55.879Z,12.47
2022-09-03T22:00:08.985Z,12.47
2022-09-03T22:03:00.661Z,12.46
2022-09-03T22:05:52.480Z,12.43
2022-09-03T22:09:03.542Z,12.45
2022-09-03T22:12:01.724Z,12.44
2022-09-03T22:14:52.910Z,12.43
2022-09-03T22:17:46.636Z,12.42
2022-09-03T22:20:32.044Z,12.40
2022-09-03T22:23:26.311Z,12.38
2022-09-03T22:26:23.870Z,12.35
2022-09-03T22:29:18.847Z,12.32
2022-09-03T22:32:06.615Z,12.27
2022-09-03T22:35:19.610Z,12.21
2022-09-03T22:38:29.483Z,12.10
2022-09-03T22:41:42.279Z,11.99
2022-09-03T22:44:52.093Z,11.85
2022-09-03T22:47:55.138Z,11.72
2022-09-03T22:50:58.064Z,11.55
2022-09-03T22:54:18.439Z,11.39
2022-09-03T22:57:05.749Z,11.23
2022-09-03T23:00:06.610Z,11.06
2022-09-03T23:03:18.896Z,10.93
2022-09-03T23:06:08.024Z,10.81
2022-09-03T23:09:12.422Z,10.76
2022-09-03T23:12:02.010Z,10.73
2022-09-03T23:14:53.855Z,10.76
2022-09-03T23:17:45.625Z,10.84
2022-09-03T23:20:34.114Z,10.89
2022-09-03T23:23:24.261Z,10.97
2022-09-03T23:26:16.801Z,11.05
2022-09-03T23:29:25.887Z,11.17
2022-09-03T23:32:10.973Z,11.22
2022-09-03T23:35:02.118Z,11.28
2022-09-03T23:38:08.877Z,11.32
2022-09-03T23:40:59.236Z,11.35
2022-09-03T23:43:53.535Z,11.38
2022-09-03T23:46:59.585Z,11.37
2022-09-03T23:50:29.188Z,11.37
2022-09-03T23:53:31.873Z,11.37
2022-09-03T23:56:45.062Z,11.36
2022-09-03T23:59:47.892Z,11.34
